createdAt,value
2023-03-17T00:02:11.300Z,100.00
2023-03-17T00:04:41.679Z,100.00
2023-03-17T00:07:13.273Z,100.00
2023-03-17T00:09:42.021Z,100.00
2023-03-17T00:12:11.636Z,100.00
2023-03-17T00:14:46.972Z,100.00
2023-03-17T00:17:15.765Z,100.00
2023-03-17T00:19:45.681Z,100.00
2023-03-17T00:22:18.800Z,100.00
2023-03-17T00:24:47.143Z,100.00
2023-03-17T00:27:16.248Z,100.00
2023-03-17T00:29:44.603Z,100.00
2023-03-17T00:32:18.292Z,100.00
2023-03-17T00:34:48.477Z,100.00
2023-03-17T00:37:17.451Z,100.00
2023-03-17T00:39:46.308Z,100.00
2023-03-17T00:42:15.481Z,100.00
2023-03-17T00:44:43.663Z,100.00
2023-03-17T00:47:13.091Z,100.00
2023-03-17T00:49:41.869Z,100.00
2023-03-17T00:52:13.098Z,100.00
2023-03-17T00:54:43.938Z,100.00
2023-03-17T00:57:12.703Z,100.00
2023-03-17T00:59:43.279Z,100.00
2023-03-17T01:02:14.604Z,100.00
2023-03-17T01:04:47.838Z,100.00
2023-03-17T01:07:24.245Z,100.00
2023-03-17T01:09:55.052Z,100.00
2023-03-17T01:12:24.835Z,100.00
2023-03-17T01:14:53.014Z,100.00
2023-03-17T01:17:22.090Z,100.00
2023-03-17T01:19:52.778Z,100.00
2023-03-17T01:22:22.589Z,100.00
2023-03-17T01:24:51.491Z,100.00
2023-03-17T01:27:19.641Z,100.00
2023-03-17T01:29:47.946Z,100.00
2023-03-17T01:32:18.640Z,100.00
2023-03-17T01:34:47.511Z,100.00
2023-03-17T01:37:16.031Z,100.00
2023-03-17T01:39:45.624Z,100.00
2023-03-17T01:42:17.602Z,100.00
2023-03-17T01:44:59.823Z,100.00
2023-03-17T01:47:32.007Z,100.00
2023-03-17T01:50:05.400Z,100.00
2023-03-17T01:52:35.944Z,100.00
2023-03-17T01:55:10.334Z,100.00
2023-03-17T01:57:45.038Z,100.00
2023-03-17T02:00:18.018Z,100.00
2023-03-17T02:02:48.858Z,100.00
2023-03-17T02:05:21.146Z,100.00
2023-03-17T02:07:49.926Z,100.00
2023-03-17T02:10:21.772Z,100.00
2023-03-17T02:12:54.578Z,100.00
2023-03-17T02:15:25.449Z,100.00
2023-03-17T02:17:54.254Z,100.00
2023-03-17T02:21:15.552Z,100.00
2023-03-17T02:23:45.215Z,100.00
2023-03-17T02:26:15.967Z,100.00
2023-03-17T02:28:46.097Z,100.00
2023-03-17T02:31:15.611Z,100.00
2023-03-17T02:33:45.321Z,100.00
2023-03-17T02:36:13.839Z,100.00
2023-03-17T02:38:49.625Z,100.00
2023-03-17T02:41:20.268Z,100.00
2023-03-17T02:43:48.739Z,100.00
2023-03-17T02:46:17.444Z,100.00
2023-03-17T02:48:50.952Z,100.00
2023-03-17T02:51:21.266Z,100.00
2023-03-17T02:53:51.259Z,100.00
2023-03-17T02:56:20.060Z,100.00
2023-03-17T03:01:36.313Z,100.00
2023-03-17T03:04:04.673Z,100.00
2023-03-17T03:06:32.752Z,100.00
2023-03-17T03:09:02.356Z,100.00
2023-03-17T03:11:31.139Z,100.00
2023-03-17T03:13:59.286Z,100.00
2023-03-17T03:16:27.415Z,100.00
2023-03-17T03:18:55.530Z,100.00
2023-03-17T03:21:23.780Z,100.00
2023-03-17T03:23:52.143Z,100.00
2023-03-17T03:26:21.961Z,100.00
2023-03-17T03:28:53.863Z,100.00
2023-03-17T03:31:22.743Z,100.00
2023-03-17T03:33:51.606Z,100.00
2023-03-17T03:36:19.672Z,100.00
2023-03-17T03:38:48.084Z,100.00
2023-03-17T03:41:16.446Z,100.00
2023-03-17T03:45:43.893Z,100.00
2023-03-17T03:48:15.195Z,100.00
2023-03-17T03:50:43.560Z,100.00
2023-03-17T03:53:11.745Z,100.00
2023-03-17T03:55:43.008Z,100.00
2023-03-17T03:58:11.564Z,100.00
2023-03-17T04:00:39.912Z,100.00
2023-03-17T04:03:12.420Z,100.00
2023-03-17T04:05:41.035Z,100.00
2023-03-17T04:08:12.249Z,100.00
2023-03-17T04:10:40.669Z,100.00
2023-03-17T04:13:09.844Z,100.00
2023-03-17T04:15:38.090Z,100.00
2023-03-17T04:18:06.626Z,100.00
2023-03-17T04:20:36.181Z,100.00
2023-03-17T04:23:04.528Z,100.00
2023-03-17T04:25:33.268Z,100.00
2023-03-17T04:28:01.854Z,100.00
2023-03-17T04:30:34.714Z,100.00
2023-03-17T04:33:03.110Z,100.00
2023-03-17T04:35:31.443Z,100.00
2023-03-17T04:38:03.565Z,100.00
2023-03-17T04:40:32.019Z,100.00
2023-03-17T04:43:02.962Z,100.00
2023-03-17T04:45:31.931Z,100.00
2023-03-17T04:48:00.130Z,100.00
2023-03-17T04:50:28.400Z,100.00
2023-03-17T04:52:56.570Z,100.00
2023-03-17T04:55:28.629Z,100.00
2023-03-17T04:57:56.850Z,100.00
2023-03-17T05:00:25.604Z,100.00
2023-03-17T05:02:53.662Z,100.00
2023-03-17T05:05:21.933Z,100.00
2023-03-17T05:07:53.309Z,100.00
2023-03-17T05:10:21.449Z,100.00
2023-03-17T05:12:51.148Z,100.00
2023-03-17T05:15:19.400Z,100.00
2023-03-17T05:17:47.805Z,100.00
2023-03-17T05:20:16.573Z,100.00
2023-03-17T05:22:44.987Z,100.00
2023-03-17T05:25:13.075Z,100.00
2023-03-17T05:27:41.533Z,100.00
2023-03-17T05:30:12.937Z,100.00
2023-03-17T05:32:42.031Z,100.00
2023-03-17T05:35:11.405Z,100.00
2023-03-17T05:37:39.522Z,100.00
2023-03-17T05:40:08.530Z,100.00
2023-03-17T05:42:36.691Z,100.00
2023-03-17T05:45:05.788Z,100.00
2023-03-17T05:47:36.156Z,100.00
2023-03-17T05:50:09.100Z,100.00
2023-03-17T05:52:39.373Z,100.00
2023-03-17T05:55:09.360Z,100.00
2023-03-17T05:57:38.013Z,100.00
2023-03-17T06:00:12.677Z,100.00
2023-03-17T06:02:45.701Z,100.00
2023-03-17T06:05:16.642Z,100.00
2023-03-17T06:07:53.985Z,100.00
2023-03-17T06:10:25.212Z,100.00
2023-03-17T06:12:53.324Z,100.00
2023-03-17T06:15:24.020Z,100.00
2023-03-17T06:17:53.418Z,100.00
2023-03-17T06:20:22.162Z,100.00
2023-03-17T06:23:03.321Z,100.00
2023-03-17T06:25:33.076Z,100.00
2023-03-17T06:28:02.833Z,100.00
2023-03-17T06:30:34.513Z,100.00
2023-03-17T06:33:04.609Z,100.00
2023-03-17T06:35:36.183Z,100.00
2023-03-17T06:38:05.081Z,100.00
2023-03-17T06:40:34.276Z,100.00
2023-03-17T06:43:02.970Z,100.00
2023-03-17T06:45:32.952Z,100.00
2023-03-17T06:48:05.006Z,100.00
2023-03-17T06:50:33.119Z,100.00
2023-03-17T06:53:03.718Z,100.00
2023-03-17T06:55:33.379Z,99.81
2023-03-17T06:58:04.224Z,97.03
2023-03-17T07:00:33.069Z,93.96
2023-03-17T07:03:02.986Z,90.13
2023-03-17T07:05:33.499Z,86.76
2023-03-17T07:08:01.913Z,80.85
2023-03-17T07:10:30.453Z,77.87
2023-03-17T07:13:02.360Z,77.18
2023-03-17T07:15:34.503Z,76.64
2023-03-17T07:18:02.994Z,72.73
2023-03-17T07:20:32.835Z,69.18
2023-03-17T07:23:01.526Z,66.27
2023-03-17T07:25:30.223Z,63.39
2023-03-17T07:28:01.175Z,61.51
2023-03-17T07:30:31.939Z,60.32
2023-03-17T07:33:00.094Z,60.65
2023-03-17T07:38:21.081Z,59.33
2023-03-17T07:40:53.100Z,59.51
2023-03-17T07:43:21.908Z,58.83
2023-03-17T07:45:50.431Z,54.68
2023-03-17T07:48:19.857Z,53.88
2023-03-17T07:50:49.745Z,51.40
2023-03-17T07:53:18.623Z,50.67
2023-03-17T07:55:47.522Z,51.57
2023-03-17T07:58:18.268Z,51.03
2023-03-17T08:00:46.736Z,53.16
2023-03-17T08:03:14.925Z,50.48
2023-03-17T08:06:03.864Z,54.65
2023-03-17T08:08:32.507Z,54.97
2023-03-17T08:11:03.660Z,53.25
2023-03-17T08:13:32.190Z,52.01
2023-03-17T08:16:02.506Z,52.60
2023-03-17T08:18:31.051Z,53.25
2023-03-17T08:20:59.234Z,54.99
2023-03-17T08:23:29.190Z,54.74
2023-03-17T08:25:58.607Z,53.53
2023-03-17T08:28:29.207Z,49.87
2023-03-17T08:31:12.084Z,50.18
2023-03-17T08:33:43.848Z,50.79
2023-03-17T08:36:12.848Z,49.51
2023-03-17T08:38:43.849Z,49.50
2023-03-17T08:41:15.207Z,47.67
2023-03-17T08:46:44.945Z,42.13
2023-03-17T08:49:14.059Z,43.11
2023-03-17T08:51:42.118Z,44.30
2023-03-17T08:54:11.132Z,47.09
2023-03-17T08:56:40.951Z,46.83
2023-03-17T08:59:10.465Z,50.19
2023-03-17T09:01:40.230Z,48.14
2023-03-17T09:04:15.455Z,46.62
2023-03-17T09:07:01.352Z,48.23
2023-03-17T09:09:32.102Z,46.72
2023-03-17T09:12:00.589Z,48.57
2023-03-17T09:14:31.718Z,48.60
2023-03-17T09:17:04.042Z,48.23
2023-03-17T09:19:39.061Z,46.87
2023-03-17T09:22:07.742Z,49.28
2023-03-17T09:24:36.669Z,49.23
2023-03-17T09:27:04.851Z,47.82
2023-03-17T09:29:33.948Z,50.59
2023-03-17T09:32:04.190Z,51.05
2023-03-17T09:34:33.051Z,50.62
2023-03-17T09:37:02.847Z,49.69
2023-03-17T09:39:31.322Z,49.23
2023-03-17T09:42:19.697Z,49.61
2023-03-17T09:45:13.567Z,49.28
2023-03-17T09:48:14.459Z,50.86
2023-03-17T09:50:48.786Z,50.89
2023-03-17T09:53:21.827Z,50.72
2023-03-17T09:55:56.217Z,50.13
2023-03-17T09:58:32.002Z,52.20
2023-03-17T10:01:01.422Z,50.71
2023-03-17T10:03:29.632Z,49.89
2023-03-17T10:06:13.408Z,48.15
2023-03-17T10:08:52.182Z,45.75
2023-03-17T10:11:33.175Z,44.86
2023-03-17T10:14:04.565Z,45.40
2023-03-17T10:16:41.676Z,44.69
2023-03-17T10:19:17.618Z,43.46
2023-03-17T10:21:52.978Z,44.74
2023-03-17T10:24:24.446Z,45.04
2023-03-17T10:26:54.506Z,42.73
2023-03-17T10:29:24.189Z,43.16
2023-03-17T10:31:56.273Z,44.30
2023-03-17T10:34:29.858Z,42.09
2023-03-17T10:37:05.546Z,42.92
2023-03-17T10:39:46.180Z,42.68
2023-03-17T10:42:22.747Z,43.26
2023-03-17T10:44:55.006Z,42.93
2023-03-17T10:47:31.805Z,41.54
2023-03-17T10:50:05.588Z,42.50
2023-03-17T10:52:41.015Z,42.61
2023-03-17T10:55:15.837Z,42.50
2023-03-17T10:57:53.254Z,43.39
2023-03-17T11:00:23.350Z,44.36
2023-03-17T11:02:57.430Z,43.59
2023-03-17T11:05:27.674Z,43.24
2023-03-17T11:07:59.909Z,42.97
2023-03-17T11:10:30.587Z,43.09
2023-03-17T11:13:01.910Z,43.21
2023-03-17T11:15:34.935Z,43.15
2023-03-17T11:18:06.017Z,42.14
2023-03-17T11:20:47.532Z,43.30
2023-03-17T11:23:31.721Z,42.33
2023-03-17T11:26:14.906Z,42.57
2023-03-17T11:28:48.729Z,41.36
2023-03-17T11:31:27.556Z,42.40
2023-03-17T11:34:04.499Z,41.37
2023-03-17T11:36:46.092Z,41.31
2023-03-17T11:39:17.842Z,43.28
2023-03-17T11:41:55.079Z,44.46
2023-03-17T11:44:43.363Z,45.95
2023-03-17T11:47:23.567Z,44.67
2023-03-17T11:50:04.754Z,44.24
2023-03-17T11:52:41.345Z,45.83
2023-03-17T11:55:21.760Z,47.10
2023-03-17T11:57:57.092Z,46.45
2023-03-17T12:00:30.044Z,46.65
2023-03-17T12:03:09.752Z,47.08
2023-03-17T12:05:39.653Z,46.50
2023-03-17T12:08:16.383Z,46.66
2023-03-17T12:10:49.533Z,47.24
2023-03-17T12:13:25.925Z,48.13
2023-03-17T12:15:58.870Z,47.47
2023-03-17T12:18:32.999Z,46.82
2023-03-17T12:21:10.933Z,48.14
2023-03-17T12:23:45.573Z,47.69
2023-03-17T12:26:16.413Z,46.86
2023-03-17T12:28:52.398Z,47.41
2023-03-17T12:31:23.927Z,47.25
2023-03-17T12:34:00.567Z,47.33
2023-03-17T12:36:29.241Z,48.51
2023-03-17T12:39:01.971Z,47.37
2023-03-17T12:41:49.052Z,46.84
2023-03-17T12:44:33.088Z,48.03
2023-03-17T12:47:18.323Z,47.53
2023-03-17T12:50:14.479Z,47.73
2023-03-17T12:53:05.093Z,48.04
2023-03-17T12:55:36.137Z,48.70
2023-03-17T12:58:07.741Z,48.11
2023-03-17T13:00:50.709Z,47.17
2023-03-17T13:03:25.695Z,46.06
2023-03-17T13:06:07.587Z,46.33
2023-03-17T13:08:38.131Z,46.21
2023-03-17T13:11:18.084Z,45.86
2023-03-17T13:13:56.165Z,45.18
2023-03-17T13:16:33.229Z,45.63
2023-03-17T13:19:32.708Z,46.06
2023-03-17T13:22:34.351Z,45.40
2023-03-17T13:25:15.724Z,45.38
2023-03-17T13:27:46.540Z,45.41
2023-03-17T13:30:44.544Z,45.36
2023-03-17T13:33:24.303Z,45.86
2023-03-17T13:36:08.065Z,46.08
2023-03-17T13:39:15.070Z,46.75
2023-03-17T13:42:17.987Z,46.66
2023-03-17T13:47:46.148Z,46.60
2023-03-17T13:50:17.576Z,46.36
2023-03-17T13:52:49.891Z,46.62
2023-03-17T13:55:38.707Z,45.94
2023-03-17T13:58:35.342Z,46.70
2023-03-17T14:01:09.078Z,46.83
2023-03-17T14:03:44.962Z,47.39
2023-03-17T14:06:17.102Z,47.39
2023-03-17T14:08:49.037Z,47.58
2023-03-17T14:11:24.090Z,47.84
2023-03-17T14:14:09.833Z,48.59
2023-03-17T14:16:45.609Z,49.19
2023-03-17T14:19:21.072Z,50.17
2023-03-17T14:21:50.322Z,49.17
2023-03-17T14:24:22.375Z,49.68
2023-03-17T14:26:54.221Z,49.50
2023-03-17T14:29:27.861Z,48.26
2023-03-17T14:32:04.797Z,48.32
2023-03-17T14:34:34.790Z,48.28
2023-03-17T14:37:04.382Z,48.68
2023-03-17T14:39:32.662Z,48.89
2023-03-17T14:42:02.883Z,48.95
2023-03-17T14:44:37.792Z,49.49
2023-03-17T14:47:13.043Z,49.18
2023-03-17T14:49:42.623Z,49.04
2023-03-17T14:52:20.171Z,50.07
2023-03-17T14:54:53.902Z,50.02
2023-03-17T14:57:27.283Z,49.64
2023-03-17T15:00:00.359Z,50.36
2023-03-17T15:02:35.393Z,50.76
2023-03-17T15:05:12.887Z,50.35
2023-03-17T15:07:43.186Z,50.77
2023-03-17T15:10:17.066Z,51.08
2023-03-17T15:12:48.773Z,51.20
2023-03-17T15:15:25.926Z,52.15
2023-03-17T15:17:58.466Z,52.03
2023-03-17T15:20:31.071Z,53.25
2023-03-17T15:23:20.924Z,52.74
2023-03-17T15:25:55.675Z,53.03
2023-03-17T15:28:29.123Z,53.60
2023-03-17T15:31:12.115Z,54.42
2023-03-17T15:33:42.661Z,55.41
2023-03-17T15:36:33.525Z,54.94
2023-03-17T15:39:03.651Z,55.01
2023-03-17T15:41:32.103Z,57.59
2023-03-17T15:44:00.277Z,56.25
2023-03-17T15:46:32.280Z,56.62
2023-03-17T15:49:01.229Z,58.16
2023-03-17T15:51:31.075Z,58.69
2023-03-17T15:53:59.359Z,60.46
2023-03-17T15:56:27.855Z,61.48
2023-03-17T15:58:56.057Z,61.84
2023-03-17T16:01:35.954Z,62.30
2023-03-17T16:04:07.225Z,62.84
2023-03-17T16:06:37.532Z,63.49
2023-03-17T16:09:07.900Z,63.75
2023-03-17T16:11:36.381Z,64.12
2023-03-17T16:14:04.872Z,64.91
2023-03-17T16:16:38.272Z,64.84
2023-03-17T16:19:10.292Z,68.23
2023-03-17T16:21:45.534Z,67.68
2023-03-17T16:24:19.906Z,67.54
2023-03-17T16:26:56.235Z,67.69
2023-03-17T16:29:24.741Z,69.18
2023-03-17T16:31:57.159Z,72.22
2023-03-17T16:34:30.695Z,70.81
2023-03-17T16:37:03.554Z,71.13
2023-03-17T16:39:32.405Z,73.87
2023-03-17T16:42:02.387Z,72.33
2023-03-17T16:44:36.734Z,74.61
2023-03-17T16:47:09.304Z,73.44
2023-03-17T16:49:55.118Z,74.42
2023-03-17T16:52:33.731Z,74.10
2023-03-17T16:55:13.485Z,74.72
2023-03-17T16:57:51.538Z,75.05
2023-03-17T17:00:28.221Z,75.44
2023-03-17T17:03:19.605Z,76.70
2023-03-17T17:05:55.044Z,77.13
2023-03-17T17:08:25.032Z,77.00
2023-03-17T17:10:53.408Z,76.67
2023-03-17T17:13:22.320Z,77.41
2023-03-17T17:15:57.796Z,77.20
2023-03-17T17:18:31.761Z,77.73
2023-03-17T17:21:04.892Z,77.37
2023-03-17T17:23:36.585Z,78.10
2023-03-17T17:26:09.720Z,78.38
2023-03-17T17:28:49.344Z,80.48
2023-03-17T17:31:20.812Z,82.25
2023-03-17T17:33:50.072Z,81.74
2023-03-17T17:36:20.522Z,83.18
2023-03-17T17:38:51.763Z,83.98
2023-03-17T17:41:23.329Z,84.38
2023-03-17T17:43:56.256Z,84.49
2023-03-17T17:46:28.597Z,85.34
2023-03-17T17:49:00.334Z,85.82
2023-03-17T17:51:33.844Z,86.60
2023-03-17T17:54:07.027Z,86.69
2023-03-17T17:56:46.830Z,86.70
2023-03-17T17:59:19.264Z,86.83
2023-03-17T18:01:53.211Z,87.58
2023-03-17T18:04:21.717Z,87.24
2023-03-17T18:06:50.243Z,88.06
2023-03-17T18:09:22.497Z,88.11
2023-03-17T18:12:00.191Z,86.77
2023-03-17T18:14:29.419Z,85.33
2023-03-17T18:17:00.697Z,86.80
2023-03-17T18:19:28.902Z,87.07
2023-03-17T18:21:57.837Z,86.97
2023-03-17T18:24:27.977Z,87.41
2023-03-17T18:26:59.009Z,87.45
2023-03-17T18:29:27.702Z,86.99
2023-03-17T18:31:56.589Z,87.20
2023-03-17T18:34:29.578Z,87.60
2023-03-17T18:37:02.624Z,87.79
2023-03-17T18:39:34.097Z,88.17
2023-03-17T18:42:02.683Z,87.99
2023-03-17T18:44:36.422Z,88.56
2023-03-17T18:48:45.635Z,89.58
2023-03-17T18:51:13.938Z,89.49
2023-03-17T18:53:42.590Z,89.78
2023-03-17T18:56:16.100Z,89.95
2023-03-17T18:58:44.412Z,90.57
2023-03-17T19:01:13.672Z,91.04
2023-03-17T19:03:48.931Z,91.18
2023-03-17T19:06:19.766Z,91.13
2023-03-17T19:08:51.094Z,91.15
2023-03-17T19:11:21.804Z,91.97
2023-03-17T19:13:50.348Z,91.56
2023-03-17T19:16:18.780Z,92.78
2023-03-17T19:18:48.544Z,92.33
2023-03-17T19:21:16.642Z,92.02
2023-03-17T19:23:44.977Z,92.57
2023-03-17T19:26:13.242Z,93.86
2023-03-17T19:28:41.622Z,94.03
2023-03-17T19:31:12.373Z,93.96
2023-03-17T19:33:41.008Z,93.97
2023-03-17T19:36:13.095Z,94.10
2023-03-17T19:38:43.656Z,94.42
2023-03-17T19:41:11.779Z,95.19
2023-03-17T19:43:41.740Z,95.76
2023-03-17T19:46:11.642Z,96.14
2023-03-17T19:48:40.952Z,96.36
2023-03-17T19:51:11.566Z,97.52
2023-03-17T19:53:39.725Z,97.16
2023-03-17T19:56:08.744Z,97.54
2023-03-17T19:58:37.688Z,97.67
2023-03-17T20:01:08.477Z,97.34
2023-03-17T20:03:39.498Z,98.03
2023-03-17T20:06:07.639Z,97.49
2023-03-17T20:08:38.061Z,96.94
2023-03-17T20:11:07.019Z,97.10
2023-03-17T20:13:38.286Z,96.69
2023-03-17T20:16:08.103Z,97.11
2023-03-17T20:18:36.960Z,97.97
2023-03-17T20:21:07.796Z,97.98
2023-03-17T20:23:38.408Z,97.35
2023-03-17T20:26:09.466Z,97.25
2023-03-17T20:28:38.842Z,97.65
2023-03-17T20:31:08.145Z,97.67
2023-03-17T20:33:36.976Z,97.76
2023-03-17T20:36:06.235Z,97.46
2023-03-17T20:38:37.168Z,97.55
2023-03-17T20:41:08.832Z,96.95
2023-03-17T20:43:38.259Z,97.38
2023-03-17T20:46:08.813Z,97.77
2023-03-17T20:48:38.233Z,97.65
2023-03-17T20:51:07.073Z,97.96
2023-03-17T20:53:39.120Z,97.91
2023-03-17T20:56:09.251Z,97.85
2023-03-17T20:58:37.616Z,97.76
2023-03-17T21:01:06.020Z,97.55
2023-03-17T21:03:34.460Z,97.71
2023-03-17T21:06:05.363Z,98.33
2023-03-17T21:08:33.863Z,99.05
2023-03-17T21:11:09.221Z,99.34
2023-03-17T21:13:38.864Z,99.09
2023-03-17T21:16:07.535Z,99.03
2023-03-17T21:18:36.282Z,99.12
2023-03-17T21:21:04.898Z,99.52
2023-03-17T21:23:33.196Z,100.00
2023-03-17T21:26:01.824Z,100.00
2023-03-17T21:28:32.316Z,100.00
2023-03-17T21:31:01.971Z,99.95
2023-03-17T21:33:30.545Z,100.00
2023-03-17T21:35:59.450Z,100.00
2023-03-17T21:38:29.608Z,100.00
2023-03-17T21:40:58.862Z,100.00
2023-03-17T21:43:28.608Z,100.00
2023-03-17T21:46:03.887Z,100.00
2023-03-17T21:48:32.006Z,100.00
2023-03-17T21:51:00.124Z,100.00
2023-03-17T21:53:33.251Z,100.00
2023-03-17T21:56:02.056Z,100.00
2023-03-17T21:58:30.266Z,100.00
2023-03-17T22:01:01.526Z,100.00
2023-03-17T22:03:32.253Z,100.00
2023-03-17T22:06:00.869Z,100.00
2023-03-17T22:08:29.708Z,100.00
2023-03-17T22:10:58.307Z,100.00
2023-03-17T22:13:31.076Z,100.00
2023-03-17T22:15:59.431Z,100.00
2023-03-17T22:18:28.246Z,100.00
2023-03-17T22:20:58.936Z,100.00
2023-03-17T22:23:27.769Z,100.00
2023-03-17T22:25:56.573Z,100.00
2023-03-17T22:28:25.334Z,100.00
2023-03-17T22:30:54.545Z,100.00
2023-03-17T22:33:22.757Z,100.00
2023-03-17T22:35:51.103Z,100.00
2023-03-17T22:38:21.916Z,100.00
2023-03-17T22:41:01.884Z,100.00
2023-03-17T22:43:30.708Z,100.00
2023-03-17T22:45:58.951Z,100.00
2023-03-17T22:48:27.897Z,100.00
2023-03-17T22:51:03.147Z,100.00
2023-03-17T22:53:32.942Z,100.00
2023-03-17T22:56:01.638Z,100.00
2023-03-17T22:58:29.847Z,100.00
2023-03-17T23:01:00.253Z,100.00
2023-03-17T23:03:28.872Z,100.00
2023-03-17T23:06:02.005Z,100.00
2023-03-17T23:08:35.420Z,100.00
2023-03-17T23:11:06.440Z,100.00
2023-03-17T23:13:36.819Z,100.00
2023-03-17T23:16:06.728Z,100.00
2023-03-17T23:18:35.458Z,100.00
2023-03-17T23:21:05.337Z,100.00
2023-03-17T23:23:35.608Z,100.00
2023-03-17T23:26:06.912Z,100.00
2023-03-17T23:28:35.050Z,100.00
2023-03-17T23:31:03.894Z,100.00
2023-03-17T23:33:34.926Z,100.00
2023-03-17T23:36:03.669Z,100.00
2023-03-17T23:38:32.481Z,100.00
2023-03-17T23:41:04.950Z,100.00
2023-03-17T23:43:34.112Z,100.00
2023-03-17T23:46:04.351Z,100.00
2023-03-17T23:49:46.156Z,100.00
2023-03-17T23:52:15.551Z,100.00
2023-03-17T23:54:44.082Z,100.00
2023-03-17T23:57:16.018Z,100.00
2023-03-17T23:59:44.291Z,100.00
